Time;durP1;ratioP1;P1;durP2;ratioP2;P2;SDS_P1;SDS_P2;PMS_P1;PMS_P2;Temp;Humidity;BMP_temperature;BMP_pressure;BME280_temperature;BME280_humidity;BME280_pressure;Samples;Min_cycle;Max_cycle;Signal;HPM_P1;HPM_P2
2022/03/06 00:01:11;;;;;;;19.75;15.10;;;0.10;99.90;;;;;;5003562;28;20034;-67
2022/03/06 00:03:37;;;;;;;17.95;14.02;;;0.10;99.90;;;;;;4986179;28;20201;-67
2022/03/06 00:06:02;;;;;;;15.68;13.43;;;0.10;99.90;;;;;;5003636;28;20466;-67
2022/03/06 00:08:28;;;;;;;18.52;14.93;;;0.10;99.90;;;;;;4991141;28;20077;-67
2022/03/06 00:10:54;;;;;;;19.23;15.00;;;0.10;99.90;;;;;;5005499;28;20039;-67
2022/03/06 00:13:20;;;;;;;19.20;14.23;;;0.00;99.90;;;;;;5004981;28;20042;-67
2022/03/06 00:15:46;;;;;;;19.08;14.93;;;0.00;99.90;;;;;;4988666;28;20030;-67
2022/03/06 00:18:12;;;;;;;22.55;15.13;;;0.00;99.90;;;;;;5006813;28;20107;-67
2022/03/06 00:20:37;;;;;;;18.83;15.27;;;0.00;99.90;;;;;;4992038;28;20468;-67
2022/03/06 00:23:03;;;;;;;20.27;15.48;;;0.00;99.90;;;;;;5007388;28;20045;-67
2022/03/06 00:25:29;;;;;;;18.52;15.98;;;-0.10;99.90;;;;;;5006533;28;20038;-67
2022/03/06 00:27:55;;;;;;;18.45;15.00;;;-0.10;99.90;;;;;;5002577;28;20052;-67
2022/03/06 00:30:21;;;;;;;17.20;14.77;;;0.00;99.90;;;;;;5006143;28;20144;-67
2022/03/06 00:32:46;;;;;;;19.42;14.25;;;-0.10;99.90;;;;;;5006484;28;20041;-67
2022/03/06 00:35:12;;;;;;;17.35;14.75;;;-0.10;99.90;;;;;;4992173;28;20060;-67
2022/03/06 00:37:38;;;;;;;18.98;15.68;;;-0.10;99.90;;;;;;4991752;28;20033;-67
2022/03/06 00:40:05;;;;;;;18.55;14.43;;;-0.10;99.90;;;;;;4990274;28;20128;-67
2022/03/06 00:42:31;;;;;;;17.60;15.45;;;-0.10;99.90;;;;;;5005831;28;20128;-67
2022/03/06 00:44:57;;;;;;;21.73;15.07;;;-0.10;99.90;;;;;;5005934;28;20165;-67
2022/03/06 00:47:23;;;;;;;16.85;14.30;;;-0.10;99.90;;;;;;5005940;28;20181;-68
2022/03/06 00:49:48;;;;;;;18.38;14.55;;;-0.10;99.90;;;;;;4988077;28;20037;-67
2022/03/06 00:52:14;;;;;;;18.50;15.80;;;-0.10;99.90;;;;;;5005561;28;21498;-67
2022/03/06 00:54:40;;;;;;;20.17;14.60;;;-0.10;99.90;;;;;;4989379;28;20066;-67
2022/03/06 00:57:06;;;;;;;19.30;15.60;;;-0.10;99.90;;;;;;5003131;28;20029;-67
2022/03/06 00:59:34;;;;;;;18.23;14.70;;;-0.10;99.90;;;;;;4990438;28;20436;-67
2022/03/06 01:02:02;;;;;;;16.20;13.93;;;0.00;99.90;;;;;;4990758;28;20049;-67
2022/03/06 01:04:27;;;;;;;19.40;15.85;;;0.00;99.90;;;;;;4988830;28;20049;-67
2022/03/06 01:06:53;;;;;;;17.90;14.05;;;0.00;99.90;;;;;;5006373;28;20038;-67
2022/03/06 01:09:19;;;;;;;15.73;12.57;;;0.10;99.90;;;;;;5004744;28;20042;-67
2022/03/06 01:11:44;;;;;;;20.02;14.68;;;0.10;99.90;;;;;;5004727;28;20531;-67
2022/03/06 01:14:10;;;;;;;17.92;14.13;;;0.10;99.90;;;;;;5003597;28;20517;-67
2022/03/06 01:16:36;;;;;;;17.55;13.93;;;0.10;99.90;;;;;;5005606;28;20068;-67
2022/03/06 01:19:02;;;;;;;18.13;14.35;;;0.10;99.90;;;;;;4990738;28;20041;-67
2022/03/06 01:21:28;;;;;;;17.70;14.63;;;0.10;99.90;;;;;;5000791;28;20034;-67
2022/03/06 01:23:53;;;;;;;18.55;13.77;;;0.10;99.90;;;;;;5007962;28;20430;-67
2022/03/06 01:26:19;;;;;;;14.32;12.63;;;0.10;99.90;;;;;;4989814;28;20042;-67
2022/03/06 01:28:45;;;;;;;17.73;13.55;;;0.20;99.90;;;;;;4986706;28;20042;-67
2022/03/06 01:31:11;;;;;;;15.52;13.57;;;0.20;99.90;;;;;;4988758;28;20084;-68
2022/03/06 01:33:37;;;;;;;16.75;13.05;;;0.20;99.90;;;;;;4990019;28;20065;-68
2022/03/06 01:36:04;;;;;;;17.40;14.10;;;0.20;99.90;;;;;;4988894;28;20041;-68
2022/03/06 01:38:29;;;;;;;17.02;14.32;;;0.20;99.90;;;;;;4989945;28;20454;-68
2022/03/06 01:40:55;;;;;;;17.20;14.20;;;0.20;99.90;;;;;;4988667;28;20121;-68
2022/03/06 01:43:21;;;;;;;18.27;13.65;;;0.20;99.90;;;;;;5007539;28;20048;-68
2022/03/06 01:45:47;;;;;;;14.60;12.80;;;0.20;99.90;;;;;;4989379;28;20054;-68
2022/03/06 01:48:12;;;;;;;17.27;13.45;;;0.30;99.90;;;;;;5006261;28;20037;-67
2022/03/06 01:50:39;;;;;;;17.33;13.38;;;0.20;99.90;;;;;;4990205;28;20041;-67
2022/03/06 01:53:07;;;;;;;16.10;11.90;;;0.20;99.90;;;;;;4986644;28;20460;-67
2022/03/06 01:55:34;;;;;;;15.77;12.70;;;0.30;99.90;;;;;;5003369;28;20108;-67
2022/03/06 01:58:02;;;;;;;15.25;12.32;;;0.30;99.90;;;;;;5006537;28;20099;-68
2022/03/06 02:00:31;;;;;;;15.15;12.05;;;0.30;99.90;;;;;;5001621;28;20118;-68
2022/03/06 02:02:57;;;;;;;15.60;13.13;;;0.30;99.90;;;;;;5007850;28;20039;-68
2022/03/06 02:05:23;;;;;;;17.77;11.57;;;0.30;99.90;;;;;;5004152;28;20056;-68
2022/03/06 02:07:49;;;;;;;17.75;13.13;;;0.30;99.90;;;;;;5002876;28;20044;-68
2022/03/06 02:10:16;;;;;;;17.58;12.82;;;0.40;99.90;;;;;;5000227;28;20034;-68
2022/03/06 02:12:43;;;;;;;15.43;12.52;;;0.40;99.90;;;;;;5005874;28;20082;-68
2022/03/06 02:15:10;;;;;;;14.07;12.07;;;0.40;99.90;;;;;;4986111;28;20713;-67
2022/03/06 02:17:37;;;;;;;16.10;12.63;;;0.40;99.90;;;;;;4986347;28;20069;-67
2022/03/06 02:20:09;;;;;;;16.92;12.35;;;0.40;99.90;;;;;;5001896;28;20440;-67
2022/03/06 02:22:40;;;;;;;16.15;12.30;;;0.50;99.90;;;;;;4985791;28;20490;-67
2022/03/06 02:25:09;;;;;;;15.10;12.65;;;0.50;99.90;;;;;;4986632;28;20053;-67
2022/03/06 02:27:35;;;;;;;15.93;12.05;;;0.50;99.90;;;;;;5004261;28;20042;-67
2022/03/06 02:30:07;;;;;;;16.55;12.00;;;0.50;99.90;;;;;;5005464;28;20041;-67
2022/03/06 02:32:33;;;;;;;16.50;12.10;;;0.50;99.90;;;;;;5002749;28;20081;-67
2022/03/06 02:34:58;;;;;;;12.60;11.02;;;0.50;99.90;;;;;;4987625;28;20122;-67
2022/03/06 02:37:24;;;;;;;15.80;11.70;;;0.60;99.90;;;;;;4988483;28;20041;-67
2022/03/06 02:39:50;;;;;;;17.08;12.43;;;0.50;99.90;;;;;;4971963;28;20119;-67
2022/03/06 02:42:33;;;;;;;16.95;12.57;;;0.50;99.90;;;;;;5009608;28;20073;-67
2022/03/06 02:45:04;;;;;;;14.18;11.45;;;0.60;99.90;;;;;;4989934;28;20046;-67
2022/03/06 02:47:29;;;;;;;15.68;12.20;;;0.60;99.90;;;;;;5004799;28;20041;-67
2022/03/06 02:49:55;;;;;;;13.90;11.27;;;0.60;99.90;;;;;;5010205;28;20030;-67
2022/03/06 02:52:21;;;;;;;18.80;12.40;;;0.60;99.90;;;;;;4992918;28;20048;-67
2022/03/06 02:54:47;;;;;;;14.82;11.65;;;0.60;99.90;;;;;;4994080;28;20038;-68
2022/03/06 02:57:13;;;;;;;17.10;13.15;;;0.60;99.90;;;;;;4989136;28;20544;-68
2022/03/06 02:59:40;;;;;;;16.98;12.27;;;0.60;99.90;;;;;;5007959;28;20506;-68
2022/03/06 03:02:06;;;;;;;15.77;11.55;;;0.60;99.90;;;;;;4992559;28;20072;-67
2022/03/06 03:04:37;;;;;;;17.00;10.98;;;0.60;99.90;;;;;;4990543;28;20041;-68
2022/03/06 03:07:03;;;;;;;13.02;10.38;;;0.60;99.90;;;;;;4999583;28;20048;-67
2022/03/06 03:09:29;;;;;;;12.25;10.73;;;0.60;99.90;;;;;;4989823;28;20393;-68
2022/03/06 03:11:57;;;;;;;14.02;11.07;;;0.60;99.90;;;;;;4987888;28;20067;-67
2022/03/06 03:14:23;;;;;;;13.05;10.68;;;0.50;99.90;;;;;;5008421;28;20045;-68
2022/03/06 03:16:49;;;;;;;11.80;9.93;;;0.50;99.90;;;;;;5001149;28;20510;-67
2022/03/06 03:19:15;;;;;;;15.15;9.77;;;0.50;99.90;;;;;;5007473;28;20126;-68
2022/03/06 03:21:41;;;;;;;13.65;10.45;;;0.50;99.90;;;;;;4993043;28;20470;-67
2022/03/06 03:24:07;;;;;;;14.38;10.05;;;0.50;99.90;;;;;;5007823;28;20037;-68
2022/03/06 03:26:33;;;;;;;14.68;10.30;;;0.40;99.90;;;;;;5005976;28;20026;-68
2022/03/06 03:28:59;;;;;;;13.43;9.57;;;0.40;99.90;;;;;;5005309;28;20379;-67
2022/03/06 03:31:25;;;;;;;12.60;10.15;;;0.40;99.90;;;;;;4988511;28;20041;-67
2022/03/06 03:33:50;;;;;;;11.65;9.70;;;0.30;99.90;;;;;;4985755;28;20033;-67
2022/03/06 03:36:16;;;;;;;12.65;10.45;;;0.30;99.90;;;;;;4990534;28;20041;-67
2022/03/06 03:38:42;;;;;;;14.52;10.73;;;0.20;99.90;;;;;;4990274;28;20038;-67
2022/03/06 03:41:08;;;;;;;11.27;10.02;;;0.20;99.90;;;;;;5005836;28;20056;-67
2022/03/06 03:43:34;;;;;;;12.40;9.93;;;0.20;99.90;;;;;;5008780;28;20051;-67
2022/03/06 03:46:00;;;;;;;12.00;9.45;;;0.20;99.90;;;;;;4987426;28;20161;-67
2022/03/06 03:48:28;;;;;;;12.85;9.90;;;0.20;99.90;;;;;;4983968;28;20168;-67
2022/03/06 03:50:54;;;;;;;13.30;9.15;;;0.10;99.90;;;;;;5006392;28;20049;-67
2022/03/06 03:53:20;;;;;;;11.85;9.38;;;0.10;99.90;;;;;;5004954;28;20129;-67
2022/03/06 03:55:46;;;;;;;15.07;10.02;;;0.00;99.90;;;;;;5006802;28;20050;-67
2022/03/06 03:58:12;;;;;;;12.80;9.15;;;0.00;99.90;;;;;;5010236;28;20111;-67
2022/03/06 04:00:38;;;;;;;12.07;9.80;;;0.00;99.90;;;;;;4999408;28;20466;-68
2022/03/06 04:03:03;;;;;;;13.38;9.43;;;0.00;99.90;;;;;;5004643;28;20567;-67
2022/03/06 04:05:29;;;;;;;12.73;10.27;;;0.00;99.90;;;;;;5006603;28;20037;-68
2022/03/06 04:07:55;;;;;;;13.40;9.77;;;-0.10;99.90;;;;;;5005820;28;20046;-67
2022/03/06 04:10:21;;;;;;;12.90;10.02;;;-0.10;99.90;;;;;;5000622;28;20461;-68
2022/03/06 04:12:46;;;;;;;11.40;8.90;;;-0.10;99.90;;;;;;5002166;28;20092;-67
2022/03/06 04:15:12;;;;;;;13.63;10.10;;;-0.10;99.90;;;;;;5002521;28;20042;-67
2022/03/06 04:17:38;;;;;;;13.02;10.23;;;-0.20;99.90;;;;;;5002830;28;20049;-67
2022/03/06 04:20:04;;;;;;;13.57;9.80;;;-0.20;99.90;;;;;;4989387;28;20085;-68
2022/03/06 04:22:30;;;;;;;15.07;10.55;;;-0.20;99.90;;;;;;4989187;28;20467;-68
2022/03/06 04:24:55;;;;;;;14.23;10.35;;;-0.20;99.90;;;;;;4985048;28;20042;-68
2022/03/06 04:27:21;;;;;;;13.35;9.75;;;-0.30;99.90;;;;;;5001516;28;20042;-67
2022/03/06 04:29:47;;;;;;;12.80;9.68;;;-0.20;99.90;;;;;;4992034;28;20613;-67
2022/03/06 04:32:13;;;;;;;12.43;9.23;;;-0.30;99.90;;;;;;5006550;28;20042;-67
2022/03/06 04:34:39;;;;;;;13.00;10.05;;;-0.30;99.90;;;;;;4989266;28;20427;-67
2022/03/06 04:37:05;;;;;;;13.90;10.10;;;-0.30;99.90;;;;;;5006314;28;20046;-67
2022/03/06 04:39:30;;;;;;;13.13;9.07;;;-0.30;99.90;;;;;;5008888;28;20081;-67
2022/03/06 04:41:56;;;;;;;12.40;9.48;;;-0.30;99.90;;;;;;4986800;28;20136;-67
2022/03/06 04:44:23;;;;;;;12.95;8.73;;;-0.30;99.90;;;;;;5009970;28;20041;-67
2022/03/06 04:46:49;;;;;;;13.20;8.90;;;-0.30;99.90;;;;;;4971458;28;20056;-67
2022/03/06 04:49:15;;;;;;;11.20;8.55;;;-0.40;99.90;;;;;;4985611;28;20422;-67
2022/03/06 04:51:41;;;;;;;13.65;9.00;;;-0.40;99.90;;;;;;5002741;28;20042;-67
2022/03/06 04:54:07;;;;;;;14.45;8.65;;;-0.30;99.90;;;;;;5009471;28;20038;-67
2022/03/06 04:56:33;;;;;;;10.10;7.35;;;-0.30;99.90;;;;;;5001928;28;20038;-67
2022/03/06 04:58:59;;;;;;;12.75;8.82;;;-0.30;99.90;;;;;;5008917;28;20061;-67
2022/03/06 05:01:25;;;;;;;12.80;7.90;;;-0.30;99.90;;;;;;4984301;28;20050;-67
2022/03/06 05:03:51;;;;;;;12.88;8.07;;;-0.30;99.90;;;;;;4987819;28;20356;-67
2022/03/06 05:06:16;;;;;;;10.18;7.38;;;-0.30;99.90;;;;;;4989267;28;20050;-67
2022/03/06 05:08:42;;;;;;;11.40;7.20;;;-0.30;99.90;;;;;;5006860;28;20578;-67
2022/03/06 05:11:08;;;;;;;13.30;7.32;;;-0.30;99.90;;;;;;5006986;28;20045;-67
2022/03/06 05:13:33;;;;;;;12.32;7.18;;;-0.30;99.90;;;;;;5007405;28;20117;-67
2022/03/06 05:15:59;;;;;;;9.65;7.38;;;-0.30;99.90;;;;;;5005749;28;20057;-67
2022/03/06 05:18:25;;;;;;;9.43;7.03;;;-0.30;99.90;;;;;;4987470;28;20054;-67
2022/03/06 05:20:50;;;;;;;13.60;7.22;;;-0.30;99.90;;;;;;4993021;28;20591;-67
2022/03/06 05:23:17;;;;;;;8.98;6.80;;;-0.20;99.90;;;;;;5009284;28;20041;-67
2022/03/06 05:25:43;;;;;;;9.57;6.60;;;-0.30;99.90;;;;;;5006283;28;20470;-67
2022/03/06 05:28:10;;;;;;;8.85;5.65;;;-0.30;99.90;;;;;;5006929;28;20182;-67
2022/03/06 05:30:35;;;;;;;9.70;6.18;;;-0.30;99.90;;;;;;4986483;28;20041;-67
2022/03/06 05:33:01;;;;;;;10.23;6.30;;;-0.30;99.90;;;;;;4989890;28;20116;-67
2022/03/06 05:35:27;;;;;;;8.23;5.68;;;-0.30;99.90;;;;;;5003209;28;20104;-67
2022/03/06 05:37:52;;;;;;;12.88;6.90;;;-0.30;99.90;;;;;;5006713;28;20673;-67
2022/03/06 05:40:19;;;;;;;10.30;5.95;;;-0.30;99.90;;;;;;4988293;28;20398;-67
2022/03/06 05:42:45;;;;;;;10.02;5.78;;;-0.30;99.90;;;;;;4986208;28;20068;-67
2022/03/06 05:45:10;;;;;;;9.05;6.25;;;-0.30;99.90;;;;;;4987472;28;20041;-67
2022/03/06 05:47:36;;;;;;;8.95;6.10;;;-0.30;99.90;;;;;;5004365;28;20521;-67
2022/03/06 05:50:04;;;;;;;10.75;6.13;;;-0.30;99.90;;;;;;5002869;28;20077;-67
2022/03/06 05:52:31;;;;;;;7.25;5.32;;;-0.40;99.90;;;;;;5005370;28;20054;-67
2022/03/06 05:54:57;;;;;;;9.10;5.72;;;-0.40;99.90;;;;;;5006749;28;20038;-67
2022/03/06 05:57:24;;;;;;;11.52;5.85;;;-0.40;99.90;;;;;;5001646;28;20050;-67
2022/03/06 05:59:50;;;;;;;7.50;4.88;;;-0.40;99.90;;;;;;4986614;28;20046;-67
2022/03/06 06:02:16;;;;;;;7.65;5.22;;;-0.40;99.90;;;;;;5005725;28;20037;-67
2022/03/06 06:04:42;;;;;;;8.93;5.65;;;-0.40;99.90;;;;;;4983938;28;20052;-67
2022/03/06 06:07:09;;;;;;;8.40;5.28;;;-0.40;99.90;;;;;;5001973;28;20038;-67
2022/03/06 06:09:35;;;;;;;10.15;5.65;;;-0.40;99.90;;;;;;4989688;28;20043;-67
2022/03/06 06:12:01;;;;;;;7.53;4.63;;;-0.40;99.90;;;;;;4987626;28;20149;-67
2022/03/06 06:14:26;;;;;;;8.27;4.53;;;-0.30;99.90;;;;;;5001648;28;20481;-67
2022/03/06 06:16:52;;;;;;;7.97;5.18;;;-0.30;99.90;;;;;;4999080;28;20045;-67
2022/03/06 06:19:18;;;;;;;10.15;5.15;;;-0.40;99.90;;;;;;4983440;28;20038;-67
2022/03/06 06:21:44;;;;;;;8.50;5.78;;;-0.30;99.90;;;;;;4985931;28;20092;-67
2022/03/06 06:24:11;;;;;;;7.70;5.22;;;-0.30;99.90;;;;;;5004463;28;20046;-67
2022/03/06 06:26:37;;;;;;;10.10;5.28;;;-0.40;99.90;;;;;;4986105;28;20034;-67
2022/03/06 06:29:03;;;;;;;8.65;4.97;;;-0.30;99.90;;;;;;4984799;28;20041;-67
2022/03/06 06:31:28;;;;;;;10.73;5.53;;;-0.30;99.90;;;;;;4987165;28;20046;-67
2022/03/06 06:33:55;;;;;;;7.47;4.70;;;-0.30;99.90;;;;;;4990107;28;20398;-67
2022/03/06 06:36:21;;;;;;;8.73;4.60;;;-0.30;99.90;;;;;;4985640;28;20387;-67
2022/03/06 06:38:47;;;;;;;9.52;5.20;;;-0.30;99.90;;;;;;4988323;28;20046;-68
2022/03/06 06:41:13;;;;;;;7.75;5.10;;;-0.20;99.90;;;;;;5006476;28;20053;-67
2022/03/06 06:43:38;;;;;;;10.65;4.80;;;-0.20;99.90;;;;;;5001101;28;20073;-68
2022/03/06 06:46:05;;;;;;;9.52;4.78;;;-0.10;99.90;;;;;;4985008;28;20057;-67
2022/03/06 06:48:31;;;;;;;9.20;4.95;;;-0.10;99.90;;;;;;5003192;28;20382;-67
2022/03/06 06:50:56;;;;;;;9.55;5.53;;;0.00;99.90;;;;;;5001439;28;20052;-67
2022/03/06 06:53:22;;;;;;;6.88;4.45;;;0.00;99.90;;;;;;4995843;28;20046;-67
2022/03/06 06:55:48;;;;;;;6.18;4.22;;;0.00;99.90;;;;;;5003296;28;20108;-67
2022/03/06 06:58:13;;;;;;;7.65;4.95;;;0.10;99.90;;;;;;5002736;28;20053;-68
2022/03/06 07:00:39;;;;;;;8.98;4.63;;;0.10;99.90;;;;;;4982533;28;20046;-67
2022/03/06 07:03:05;;;;;;;6.70;3.92;;;0.10;99.90;;;;;;4983216;28;20427;-67
2022/03/06 07:05:30;;;;;;;7.05;4.13;;;0.20;99.90;;;;;;4997334;28;20046;-67
2022/03/06 07:07:57;;;;;;;6.22;4.15;;;0.30;99.90;;;;;;4997392;28;20072;-67
2022/03/06 07:10:23;;;;;;;6.93;4.22;;;0.30;99.90;;;;;;5002377;28;20068;-68
2022/03/06 07:12:53;;;;;;;6.53;3.60;;;0.30;99.90;;;;;;4997972;28;20157;-67
2022/03/06 07:15:19;;;;;;;6.07;3.90;;;0.40;99.90;;;;;;5003142;28;20034;-67
2022/03/06 07:17:46;;;;;;;8.48;4.13;;;0.40;99.90;;;;;;4999742;28;20078;-67
2022/03/06 07:20:12;;;;;;;8.43;6.05;;;0.50;99.90;;;;;;5006475;28;20107;-67
2022/03/06 07:22:38;;;;;;;6.53;4.20;;;0.50;99.90;;;;;;4983288;28;20127;-67
2022/03/06 07:25:04;;;;;;;9.40;3.90;;;0.50;99.90;;;;;;5001762;28;20120;-67
2022/03/06 07:27:30;;;;;;;6.63;3.45;;;0.60;99.90;;;;;;5005213;28;20049;-67
2022/03/06 07:29:56;;;;;;;13.18;4.63;;;0.70;99.90;;;;;;5001890;28;20056;-67
2022/03/06 07:32:23;;;;;;;10.25;4.28;;;0.70;99.90;;;;;;5007155;28;20124;-67
2022/03/06 07:34:49;;;;;;;6.47;4.25;;;0.90;99.90;;;;;;5000396;28;20053;-67
2022/03/06 07:37:14;;;;;;;5.65;3.40;;;1.10;99.90;;;;;;5001238;28;20807;-67
2022/03/06 07:39:41;;;;;;;7.00;4.45;;;1.30;99.90;;;;;;5005134;28;20083;-68
2022/03/06 07:42:07;;;;;;;6.88;3.45;;;1.70;99.90;;;;;;5000043;28;20042;-67
2022/03/06 07:44:32;;;;;;;9.15;4.43;;;2.10;99.90;;;;;;5004706;28;20355;-67
2022/03/06 07:46:58;;;;;;;5.72;2.72;;;2.80;99.90;;;;;;5004699;28;20038;-67
2022/03/06 07:49:24;;;;;;;3.95;2.70;;;3.30;99.90;;;;;;5007074;28;20053;-67
2022/03/06 07:51:50;;;;;;;5.53;3.13;;;4.00;99.40;;;;;;5004517;28;20030;-67
2022/03/06 07:54:17;;;;;;;5.40;3.00;;;4.60;97.80;;;;;;4985729;28;20041;-67
2022/03/06 07:56:44;;;;;;;5.55;3.20;;;5.10;96.10;;;;;;4991931;28;20495;-68
2022/03/06 07:59:09;;;;;;;6.35;3.42;;;5.10;93.20;;;;;;5000314;28;20351;-68
2022/03/06 08:01:35;;;;;;;5.00;2.45;;;5.70;93.90;;;;;;5003277;28;20108;-68
2022/03/06 08:04:01;;;;;;;7.45;3.55;;;6.00;91.60;;;;;;4994038;28;20453;-68
2022/03/06 08:06:27;;;;;;;4.70;2.20;;;6.20;90.70;;;;;;4990320;28;20347;-69
2022/03/06 08:08:52;;;;;;;5.45;2.40;;;6.70;87.10;;;;;;5005869;28;20045;-69
2022/03/06 08:11:18;;;;;;;4.85;2.03;;;6.90;86.50;;;;;;4989651;28;20514;-69
2022/03/06 08:13:44;;;;;;;3.38;2.20;;;7.20;78.90;;;;;;4993026;28;20045;-69
2022/03/06 08:16:10;;;;;;;4.55;2.53;;;7.10;81.10;;;;;;4989330;28;20035;-69
2022/03/06 08:18:36;;;;;;;13.93;6.60;;;7.50;81.90;;;;;;4986502;28;20535;-69
2022/03/06 08:21:02;;;;;;;4.25;2.08;;;7.70;80.60;;;;;;4996337;28;20387;-70
2022/03/06 08:23:27;;;;;;;3.72;1.40;;;8.20;75.60;;;;;;4988780;28;20068;-69
2022/03/06 08:25:54;;;;;;;2.50;1.77;;;8.10;73.00;;;;;;5005504;28;20068;-69
2022/03/06 08:28:20;;;;;;;4.88;1.75;;;8.20;74.80;;;;;;5004137;28;20100;-69
2022/03/06 08:30:46;;;;;;;3.67;2.00;;;8.30;73.80;;;;;;4991447;28;20042;-69
2022/03/06 08:33:12;;;;;;;4.45;1.77;;;8.30;71.40;;;;;;5002001;28;20037;-69
2022/03/06 08:35:38;;;;;;;8.02;4.85;;;8.30;71.20;;;;;;5008402;28;20437;-69
2022/03/06 08:38:04;;;;;;;2.92;1.50;;;8.10;68.60;;;;;;4986277;28;20701;-69
2022/03/06 08:40:31;;;;;;;4.10;1.80;;;8.00;68.90;;;;;;5005607;28;20044;-69
2022/03/06 08:42:57;;;;;;;3.88;1.95;;;8.20;68.90;;;;;;5004545;28;20485;-68
2022/03/06 08:45:23;;;;;;;4.05;1.73;;;8.10;64.20;;;;;;5006790;28;20080;-69
2022/03/06 08:47:49;;;;;;;2.65;1.20;;;8.10;64.80;;;;;;5005043;28;20039;-68
2022/03/06 08:50:15;;;;;;;2.97;1.25;;;8.40;66.80;;;;;;5007011;28;20449;-68
2022/03/06 08:52:40;;;;;;;2.58;1.38;;;8.20;65.50;;;;;;5003095;28;20080;-68
2022/03/06 08:55:08;;;;;;;2.10;1.30;;;8.20;65.90;;;;;;5006869;28;20042;-68
2022/03/06 08:57:33;;;;;;;3.60;1.42;;;8.70;66.50;;;;;;5002597;28;20043;-68
2022/03/06 09:00:04;;;;;;;6.15;3.38;;;9.40;66.70;;;;;;5001060;28;20069;-68
2022/03/06 09:02:30;;;;;;;3.13;1.30;;;9.40;62.80;;;;;;5010300;28;20445;-68
2022/03/06 09:04:56;;;;;;;5.30;1.58;;;9.10;61.00;;;;;;5008519;28;20042;-68
2022/03/06 09:07:22;;;;;;;4.68;2.20;;;9.20;63.00;;;;;;5007192;28;20029;-68
2022/03/06 09:09:47;;;;;;;2.78;1.30;;;9.10;62.40;;;;;;4991900;28;20082;-68
2022/03/06 09:12:13;;;;;;;2.08;1.17;;;9.20;62.10;;;;;;5006885;28;20050;-68
2022/03/06 09:14:39;;;;;;;2.45;1.13;;;9.30;61.10;;;;;;5006902;28;20029;-68
2022/03/06 09:17:05;;;;;;;3.45;1.40;;;9.60;59.20;;;;;;4997460;28;20049;-68
2022/03/06 09:19:30;;;;;;;3.20;1.50;;;9.30;58.80;;;;;;5004888;28;20038;-68
2022/03/06 09:21:56;;;;;;;5.03;1.50;;;9.40;59.40;;;;;;5003672;28;20660;-68
2022/03/06 09:24:22;;;;;;;4.22;1.73;;;9.30;60.10;;;;;;5007926;28;20119;-68
2022/03/06 09:26:50;;;;;;;2.67;1.35;;;9.20;58.00;;;;;;5006052;28;20537;-68
2022/03/06 09:29:16;;;;;;;3.05;1.25;;;9.20;57.50;;;;;;4999196;28;20486;-68
2022/03/06 09:31:43;;;;;;;3.03;1.60;;;9.40;58.90;;;;;;5005860;28;20030;-68
2022/03/06 09:34:09;;;;;;;3.78;1.80;;;9.50;59.60;;;;;;5003513;28;20482;-68
2022/03/06 09:36:36;;;;;;;2.55;1.33;;;9.80;57.80;;;;;;4989242;28;20038;-68
2022/03/06 09:39:04;;;;;;;3.85;2.05;;;9.80;56.20;;;;;;4985337;28;20385;-68
2022/03/06 09:41:30;;;;;;;3.33;1.27;;;10.10;57.90;;;;;;5006511;28;20115;-68
2022/03/06 09:43:56;;;;;;;4.60;1.58;;;9.80;56.10;;;;;;5005926;28;20057;-68
2022/03/06 09:46:23;;;;;;;3.35;1.35;;;10.40;56.50;;;;;;4987244;28;20046;-68
2022/03/06 09:48:50;;;;;;;3.78;1.42;;;10.20;55.70;;;;;;5012022;28;20045;-68
2022/03/06 09:51:16;;;;;;;3.30;1.42;;;10.30;55.40;;;;;;5002191;28;20045;-68
2022/03/06 09:53:42;;;;;;;3.80;1.40;;;10.90;55.60;;;;;;5008909;28;20057;-68
2022/03/06 09:56:07;;;;;;;3.95;1.48;;;10.60;54.70;;;;;;5007410;28;20134;-68
2022/03/06 09:58:34;;;;;;;2.53;1.13;;;10.90;52.30;;;;;;5005220;28;20047;-68
2022/03/06 10:00:59;;;;;;;2.72;1.20;;;11.00;51.90;;;;;;5006935;28;20030;-69
2022/03/06 10:03:25;;;;;;;2.22;1.30;;;10.20;50.00;;;;;;5009317;28;20490;-68
2022/03/06 10:05:52;;;;;;;3.78;1.40;;;10.40;53.50;;;;;;5002599;28;20108;-69
2022/03/06 10:08:35;;;;;;;4.80;1.55;;;10.40;51.20;;;;;;5008815;28;20034;-68
2022/03/06 10:11:15;;;;;;;2.38;1.10;;;10.60;52.40;;;;;;5005902;28;20042;-68
2022/03/06 10:13:43;;;;;;;2.83;1.10;;;10.80;53.40;;;;;;5006970;28;20052;-68
2022/03/06 10:16:14;;;;;;;3.25;1.42;;;10.20;51.80;;;;;;5006211;28;20133;-69
2022/03/06 10:18:44;;;;;;;4.82;1.52;;;9.70;53.10;;;;;;4969780;28;20107;-69
2022/03/06 10:21:20;;;;;;;3.33;1.30;;;9.40;53.90;;;;;;4997044;28;20560;-69
2022/03/06 10:23:49;;;;;;;2.38;1.25;;;9.70;54.90;;;;;;5006607;28;20501;-69
2022/03/06 10:26:17;;;;;;;3.58;1.50;;;10.20;55.10;;;;;;5007899;28;20434;-68
2022/03/06 10:28:52;;;;;;;3.78;1.27;;;10.20;52.70;;;;;;5011103;28;20681;-68
2022/03/06 10:31:20;;;;;;;3.70;1.80;;;10.40;54.10;;;;;;4989540;28;20085;-72
2022/03/06 10:34:07;;;;;;;3.17;1.33;;;10.20;52.70;;;;;;4995557;28;20069;-73
2022/03/06 10:36:39;;;;;;;2.92;1.23;;;10.40;52.10;;;;;;4990800;28;20373;-72
2022/03/06 10:39:14;;;;;;;3.55;1.52;;;10.40;53.80;;;;;;4991126;28;20045;-72
2022/03/06 10:41:42;;;;;;;2.67;1.50;;;10.70;52.80;;;;;;4995555;28;20125;-68
2022/03/06 10:44:11;;;;;;;2.70;1.02;;;10.20;51.80;;;;;;5002506;28;20063;-72
2022/03/06 10:46:37;;;;;;;3.58;1.55;;;10.10;52.80;;;;;;5001162;28;20049;-75
2022/03/06 10:49:12;;;;;;;3.15;1.45;;;10.40;52.90;;;;;;5002490;28;20050;-69
2022/03/06 10:51:50;;;;;;;1.90;1.20;;;10.10;50.90;;;;;;5006258;28;20056;-68
2022/03/06 10:54:17;;;;;;;3.30;1.50;;;9.70;52.20;;;;;;5005655;28;20130;-68
2022/03/06 10:56:46;;;;;;;4.55;1.35;;;9.90;53.30;;;;;;4985953;28;20072;-68
2022/03/06 10:59:14;;;;;;;3.05;1.40;;;9.80;53.30;;;;;;4997516;28;20049;-68
2022/03/06 11:01:39;;;;;;;2.78;1.23;;;10.10;52.00;;;;;;5006351;28;20044;-68
2022/03/06 11:04:06;;;;;;;3.85;1.73;;;10.10;51.80;;;;;;5014887;28;20042;-68
2022/03/06 11:06:40;;;;;;;3.05;1.38;;;10.10;52.70;;;;;;4973433;28;20112;-68
2022/03/06 11:09:14;;;;;;;2.33;1.10;;;10.20;51.70;;;;;;5006889;28;20127;-68
2022/03/06 11:11:50;;;;;;;2.97;1.30;;;10.50;51.80;;;;;;5007973;28;20053;-68
2022/03/06 11:14:17;;;;;;;2.63;1.10;;;10.40;51.60;;;;;;5010926;28;20039;-69
2022/03/06 11:16:43;;;;;;;2.53;1.33;;;10.70;51.20;;;;;;5013007;28;20099;-69
2022/03/06 11:19:10;;;;;;;4.15;1.30;;;10.90;51.90;;;;;;4997383;28;20481;-68
2022/03/06 11:21:39;;;;;;;3.55;1.50;;;10.40;50.60;;;;;;5004284;28;20183;-69
2022/03/06 11:24:16;;;;;;;3.22;1.55;;;10.30;51.70;;;;;;5011110;28;20053;-69
2022/03/06 11:27:27;;;;;;;6.28;1.60;;;10.20;50.60;;;;;;4991324;28;20148;-69
2022/03/06 11:30:04;;;;;;;4.30;1.60;;;10.10;50.70;;;;;;5007100;28;20766;-68
2022/03/06 11:32:32;;;;;;;3.45;1.55;;;10.50;52.00;;;;;;5005161;28;20509;-68
2022/03/06 11:35:17;;;;;;;2.20;1.40;;;10.70;51.30;;;;;;4978505;28;20570;-68
2022/03/06 11:37:49;;;;;;;2.72;1.52;;;10.70;51.30;;;;;;4987943;28;20433;-69
2022/03/06 11:41:06;;;;;;;3.35;1.88;;;10.20;50.90;;;;;;5003608;28;20050;-68
2022/03/06 11:43:44;;;;;;;4.82;1.33;;;10.40;52.70;;;;;;4995185;28;20065;-68
2022/03/06 11:46:24;;;;;;;3.60;1.40;;;10.30;51.90;;;;;;5004635;28;20058;-68
2022/03/06 11:48:50;;;;;;;5.25;2.38;;;10.60;52.90;;;;;;5005493;28;20513;-68
2022/03/06 11:51:19;;;;;;;2.80;1.25;;;10.80;52.70;;;;;;5005637;28;20080;-68
2022/03/06 11:54:01;;;;;;;3.92;2.55;;;10.80;52.00;;;;;;5007827;28;20385;-68
2022/03/06 11:56:36;;;;;;;4.78;1.80;;;10.80;52.10;;;;;;5010445;28;20041;-68
2022/03/06 11:59:17;;;;;;;3.13;1.50;;;10.90;51.50;;;;;;5002162;28;20047;-68
2022/03/06 12:01:47;;;;;;;3.58;1.85;;;11.10;52.00;;;;;;5005276;28;20536;-67
2022/03/06 12:04:19;;;;;;;7.63;1.80;;;11.00;51.40;;;;;;5008791;28;20053;-67
2022/03/06 12:06:48;;;;;;;3.50;1.75;;;10.60;52.40;;;;;;4991828;28;20042;-68
2022/03/06 12:09:19;;;;;;;3.47;2.83;;;10.80;52.30;;;;;;5001320;28;20096;-69
2022/03/06 12:11:47;;;;;;;3.88;1.70;;;10.90;52.50;;;;;;5007366;28;20030;-69
2022/03/06 12:14:39;;;;;;;4.30;1.67;;;10.90;52.10;;;;;;5005685;28;20041;-69
2022/03/06 12:17:10;;;;;;;4.00;1.80;;;10.80;51.90;;;;;;5001990;28;20458;-69
2022/03/06 12:19:42;;;;;;;3.60;1.80;;;10.90;52.50;;;;;;4998609;28;20038;-69
2022/03/06 12:22:12;;;;;;;3.42;1.90;;;10.70;52.00;;;;;;4988074;28;20200;-69
2022/03/06 12:24:46;;;;;;;4.95;2.00;;;10.40;52.60;;;;;;4993783;28;20045;-69
2022/03/06 12:27:25;;;;;;;23.75;13.80;;;10.40;52.70;;;;;;5001032;28;20042;-69
2022/03/06 12:30:06;;;;;;;4.55;2.30;;;10.50;52.80;;;;;;5000555;28;20089;-69
2022/03/06 12:32:36;;;;;;;4.88;2.47;;;10.40;52.80;;;;;;5004745;28;20034;-68
2022/03/06 12:35:09;;;;;;;4.63;1.67;;;10.20;53.10;;;;;;5003847;28;20042;-68
2022/03/06 12:37:38;;;;;;;8.40;1.85;;;9.50;54.00;;;;;;4987630;28;20030;-68
2022/03/06 12:40:06;;;;;;;5.70;1.40;;;9.60;54.20;;;;;;5007146;28;20117;-68
2022/03/06 12:42:35;;;;;;;3.42;1.80;;;9.40;55.00;;;;;;4992371;28;20057;-68
2022/03/06 12:45:12;;;;;;;4.20;1.73;;;9.30;55.50;;;;;;5007217;28;20125;-68
2022/03/06 12:47:41;;;;;;;2.47;1.50;;;8.70;56.30;;;;;;5006054;28;20056;-68